Comiso Airport "Vincenzo Magliocco" LICB

Flugplatz Daten

Name: Comiso Airport "Vincenzo Magliocco"

Ident: LICB

Lat: 36,99460102

Long: 14,60718155

Platzhöhe: 623 ft

IataCode: CIY

City: Comiso

Homepage: http://www.aeroportodicomiso.it/

Metar

2021/12/04 00:20
LICB 040020Z AUTO VRB02KT 9000 -RA FEW026 BKN047 08/07 Q1010

Taf

2021/12/03 00:00
TAF LICB 032300Z 0400/0424 25012KT 9999 SCT030
TEMPO 0400/0406 SHRA
Gewünschte Webcam nicht vorhanden? Dann fügen Sie eine hinzu. Sie wird dann so schnell wie möglich freigeschaltet
Url: Title: